Terminal Aerodrome Forecast
Issued by NWS Sioux Falls, SD

Home | Current Version | Previous Version | Graphics & Text | Print | Product List | Glossary On
Versions: 1 2 3 4 5 6 7 8 9 10 11 12 13 14 15 16 17 18 19 20 21 22 23 24 25 26 27 28
000
FTUS43 KFSD 261724
TAFSUX
TAF
KSUX 261724Z 2618/2718 03008KT P6SM SCT045
     FM262000 02008KT P6SM SCT200
     FM271000 14004KT P6SM FEW250
     FM271400 16008KT P6SM FEW250
     FM271600 16015G21KT P6SM FEW250=

USA.gov is the U.S. government's official web portal to all federal, state and local government web resources and services.